createdAt,value
2022-10-15T00:00:05.833Z,16.09
2022-10-15T00:01:11.556Z,15.01
2022-10-15T00:02:13.722Z,15.59
2022-10-15T00:03:16.529Z,15.49
2022-10-15T00:04:18.555Z,14.51
2022-10-15T00:05:21.938Z,14.71
2022-10-15T00:06:23.996Z,16.27
2022-10-15T00:07:28.307Z,15.69
2022-10-15T00:08:30.616Z,15.91
2022-10-15T00:09:32.491Z,15.13
2022-10-15T00:10:35.333Z,14.85
2022-10-15T00:11:37.256Z,15.63
2022-10-15T00:12:40.172Z,15.28
2022-10-15T00:13:42.601Z,16.18
2022-10-15T00:14:44.488Z,16.42
2022-10-15T00:15:46.383Z,15.96
2022-10-15T00:16:49.367Z,15.67
2022-10-15T00:17:51.822Z,15.81
2022-10-15T00:18:58.795Z,15.13
2022-10-15T00:20:01.747Z,14.51
2022-10-15T00:21:09.007Z,14.76
2022-10-15T00:22:10.941Z,15.23
2022-10-15T00:23:12.851Z,15.42
2022-10-15T00:24:15.108Z,15.45
2022-10-15T00:25:17.292Z,14.98
2022-10-15T00:26:22.294Z,14.99
2022-10-15T00:27:24.379Z,15.42
2022-10-15T00:28:29.485Z,15.54
2022-10-15T00:29:30.168Z,15.78
2022-10-15T00:30:32.541Z,15.55
2022-10-15T00:31:35.080Z,16.57
2022-10-15T00:32:36.992Z,15.35
2022-10-15T00:33:39.308Z,14.65
2022-10-15T00:34:41.270Z,15.45
2022-10-15T00:35:43.144Z,15.03
2022-10-15T00:36:45.472Z,15.44
2022-10-15T00:37:47.363Z,14.55
2022-10-15T00:38:50.390Z,14.61
2022-10-15T00:39:52.674Z,15.02
2022-10-15T00:40:55.250Z,15.23
2022-10-15T00:41:57.355Z,15.19
2022-10-15T00:42:59.345Z,14.68
2022-10-15T00:46:27.782Z,13.35
2022-10-15T00:47:45.786Z,14.12
2022-10-15T00:48:50.744Z,15.07
2022-10-15T00:49:56.482Z,14.60
2022-10-15T00:51:01.668Z,14.33
2022-10-15T00:52:07.544Z,14.92
2022-10-15T00:53:09.865Z,14.75
2022-10-15T00:54:12.638Z,14.34
2022-10-15T00:55:24.084Z,15.31
2022-10-15T00:56:28.977Z,14.61
2022-10-15T00:57:32.490Z,15.41
2022-10-15T00:58:35.674Z,14.17
2022-10-15T00:59:41.668Z,14.25
2022-10-15T01:00:43.961Z,15.28
2022-10-15T01:01:47.408Z,15.48
2022-10-15T01:02:49.557Z,15.03
2022-10-15T01:03:54.621Z,16.59
2022-10-15T01:04:56.675Z,15.65
2022-10-15T01:05:58.888Z,15.87
2022-10-15T01:07:00.985Z,16.01
2022-10-15T01:08:02.845Z,17.50
2022-10-15T01:09:05.266Z,16.99
2022-10-15T01:10:10.513Z,15.82
2022-10-15T01:11:18.957Z,16.84
2022-10-15T01:12:50.601Z,17.21
2022-10-15T01:14:20.628Z,17.16
2022-10-15T01:15:44.729Z,17.96
2022-10-15T01:16:56.699Z,18.14
2022-10-15T01:18:11.599Z,18.64
2022-10-15T01:19:29.550Z,18.14
2022-10-15T01:20:53.230Z,17.34
2022-10-15T01:22:16.739Z,16.21
2022-10-15T01:23:31.221Z,16.83
2022-10-15T01:24:45.743Z,16.72
2022-10-15T01:26:15.979Z,17.89
2022-10-15T01:27:36.464Z,16.27
2022-10-15T01:28:48.089Z,16.99
2022-10-15T01:30:21.811Z,17.30
2022-10-15T01:31:39.676Z,17.07
2022-10-15T01:32:45.685Z,18.14
2022-10-15T01:34:00.469Z,18.38
2022-10-15T01:35:12.091Z,19.15
2022-10-15T01:38:59.550Z,18.63
2022-10-15T01:40:08.505Z,17.12
2022-10-15T01:41:14.205Z,18.21
2022-10-15T01:42:19.982Z,18.87
2022-10-15T01:43:50.099Z,18.27
2022-10-15T01:44:55.777Z,18.51
2022-10-15T01:46:01.463Z,18.41
2022-10-15T01:47:07.211Z,18.38
2022-10-15T01:48:11.539Z,18.72
2022-10-15T01:49:17.222Z,17.88
2022-10-15T01:50:23.078Z,17.37
2022-10-15T01:51:27.277Z,16.73
2022-10-15T01:52:33.138Z,16.56
2022-10-15T01:53:36.567Z,15.71
2022-10-15T01:54:39.584Z,15.19
2022-10-15T01:55:44.730Z,15.77
2022-10-15T01:56:49.382Z,15.85
2022-10-15T01:57:53.707Z,15.74
2022-10-15T01:58:56.837Z,14.90
2022-10-15T01:59:59.952Z,15.06
2022-10-15T02:01:02.428Z,15.81
2022-10-15T02:02:04.656Z,16.00
2022-10-15T02:03:06.541Z,15.91
2022-10-15T02:04:24.157Z,14.71
2022-10-15T02:05:35.650Z,14.56
2022-10-15T02:06:41.482Z,14.64
2022-10-15T02:08:04.083Z,14.94
2022-10-15T02:09:15.934Z,14.40
2022-10-15T02:10:38.562Z,15.37
2022-10-15T02:14:07.564Z,15.02
2022-10-15T02:16:47.156Z,14.82
2022-10-15T02:18:08.337Z,14.60
2022-10-15T02:19:31.042Z,14.17
2022-10-15T02:20:39.738Z,14.98
2022-10-15T02:22:00.489Z,14.42
2022-10-15T02:23:06.186Z,14.67
2022-10-15T02:24:21.140Z,15.98
2022-10-15T02:25:25.106Z,14.65
2022-10-15T02:26:29.750Z,14.26
2022-10-15T02:27:33.474Z,14.82
2022-10-15T02:28:37.911Z,14.21
2022-10-15T02:29:42.193Z,13.98
2022-10-15T02:30:47.699Z,14.65
2022-10-15T02:31:51.927Z,13.87
2022-10-15T02:32:57.358Z,13.96
2022-10-15T02:34:03.070Z,14.38
2022-10-15T02:35:10.765Z,13.66
2022-10-15T02:36:14.412Z,14.72
2022-10-15T02:37:22.997Z,14.61
2022-10-15T02:38:28.657Z,14.27
2022-10-15T02:39:31.058Z,14.25
2022-10-15T02:40:35.108Z,14.60
2022-10-15T02:41:38.514Z,14.22
2022-10-15T02:42:40.448Z,14.94
2022-10-15T02:43:42.580Z,14.16
2022-10-15T02:44:45.192Z,14.44
2022-10-15T02:45:48.881Z,14.26
2022-10-15T02:46:50.888Z,14.51
2022-10-15T02:47:52.759Z,14.48
2022-10-15T02:48:54.768Z,14.08
2022-10-15T02:49:56.765Z,13.79
2022-10-15T02:50:58.760Z,14.44
2022-10-15T02:52:00.653Z,14.54
2022-10-15T02:53:03.453Z,14.17
2022-10-15T02:54:06.400Z,14.14
2022-10-15T02:55:09.188Z,13.68
2022-10-15T02:56:11.867Z,13.26
2022-10-15T02:57:13.740Z,14.38
2022-10-15T02:58:15.829Z,14.53
2022-10-15T02:59:17.977Z,14.21
2022-10-15T03:00:20.223Z,13.33
2022-10-15T03:01:22.475Z,14.61
2022-10-15T03:02:24.585Z,13.77
2022-10-15T03:03:26.543Z,14.25
2022-10-15T03:04:28.833Z,13.22
2022-10-15T03:05:31.080Z,13.27
2022-10-15T03:06:33.321Z,13.71
2022-10-15T03:07:35.641Z,13.99
2022-10-15T03:08:37.528Z,13.59
2022-10-15T03:09:39.462Z,13.91
2022-10-15T03:10:41.781Z,13.45
2022-10-15T03:11:44.485Z,13.05
2022-10-15T03:12:46.483Z,12.91
2022-10-15T03:13:48.520Z,12.41
2022-10-15T03:14:50.612Z,13.78
2022-10-15T03:15:52.953Z,13.05
2022-10-15T03:16:55.580Z,14.14
2022-10-15T03:17:57.842Z,13.50
2022-10-15T03:18:59.837Z,14.20
2022-10-15T03:20:01.865Z,14.58
2022-10-15T03:21:04.360Z,12.69
2022-10-15T03:22:06.687Z,13.55
2022-10-15T03:23:08.730Z,12.20
2022-10-15T03:24:10.631Z,13.13
2022-10-15T03:25:13.246Z,13.93
2022-10-15T03:26:16.133Z,13.09
2022-10-15T03:27:18.214Z,13.36
2022-10-15T03:28:22.019Z,13.15
2022-10-15T03:29:24.139Z,13.08
2022-10-15T03:30:26.114Z,14.13
2022-10-15T03:31:27.984Z,12.35
2022-10-15T03:32:32.997Z,13.20
2022-10-15T03:33:34.005Z,12.94
2022-10-15T03:34:36.475Z,12.99
2022-10-15T03:35:39.133Z,12.69
2022-10-15T03:36:41.139Z,13.11
2022-10-15T03:37:43.191Z,12.58
2022-10-15T03:38:45.066Z,13.77
2022-10-15T03:39:46.943Z,13.62
2022-10-15T03:40:48.923Z,13.45
2022-10-15T03:41:53.915Z,12.76
2022-10-15T03:42:56.255Z,12.74
2022-10-15T03:44:02.922Z,12.91
2022-10-15T03:45:05.828Z,13.50
2022-10-15T03:46:07.954Z,12.83
2022-10-15T03:47:09.908Z,12.23
2022-10-15T03:48:11.910Z,13.19
2022-10-15T03:49:13.800Z,13.34
2022-10-15T03:50:16.484Z,13.00
2022-10-15T03:51:22.698Z,12.73
2022-10-15T03:52:23.013Z,12.97
2022-10-15T03:53:25.426Z,12.79
2022-10-15T03:54:27.306Z,13.39
2022-10-15T03:55:29.197Z,12.33
2022-10-15T03:56:31.190Z,11.99
2022-10-15T03:57:33.468Z,12.49
2022-10-15T03:58:35.845Z,12.80
2022-10-15T03:59:37.779Z,13.20
2022-10-15T04:00:44.432Z,12.49
2022-10-15T04:01:46.613Z,13.78
2022-10-15T04:02:48.612Z,12.41
2022-10-15T04:03:53.292Z,12.75
2022-10-15T04:04:55.199Z,13.88
2022-10-15T04:05:59.817Z,12.75
2022-10-15T04:07:01.027Z,12.77
2022-10-15T04:08:03.754Z,13.41
2022-10-15T04:09:05.827Z,12.61
2022-10-15T04:10:08.835Z,11.89
2022-10-15T04:11:10.715Z,12.54
2022-10-15T04:12:13.215Z,12.21
2022-10-15T04:13:15.143Z,12.62
2022-10-15T04:14:17.085Z,12.07
2022-10-15T04:15:18.944Z,11.99
2022-10-15T04:16:21.044Z,12.95
2022-10-15T04:17:22.936Z,12.07
2022-10-15T04:18:24.927Z,12.62
2022-10-15T04:19:27.180Z,12.58
2022-10-15T04:20:29.165Z,12.71
2022-10-15T04:21:31.350Z,12.18
2022-10-15T04:22:33.438Z,12.34
2022-10-15T04:23:35.424Z,12.82
2022-10-15T04:24:37.341Z,11.96
2022-10-15T04:25:39.722Z,11.55
2022-10-15T04:26:41.957Z,11.52
2022-10-15T04:27:44.047Z,12.08
2022-10-15T04:28:47.923Z,12.87
2022-10-15T04:29:50.098Z,12.69
2022-10-15T04:33:16.474Z,12.67
2022-10-15T04:34:18.548Z,13.63
2022-10-15T04:35:21.674Z,12.66
2022-10-15T04:36:23.883Z,13.22
2022-10-15T04:37:25.947Z,12.57
2022-10-15T04:38:28.777Z,12.46
2022-10-15T04:39:30.787Z,11.88
2022-10-15T04:40:32.764Z,12.20
2022-10-15T04:41:34.998Z,12.25
2022-10-15T04:42:37.842Z,12.35
2022-10-15T04:43:39.764Z,11.72
2022-10-15T04:44:41.758Z,12.05
2022-10-15T04:45:43.650Z,12.31
2022-10-15T04:46:45.846Z,12.17
2022-10-15T04:47:47.726Z,11.33
2022-10-15T04:48:49.902Z,10.83
2022-10-15T04:49:51.861Z,10.96
2022-10-15T04:50:54.227Z,10.75
2022-10-15T04:51:56.135Z,12.08
2022-10-15T04:52:59.135Z,11.29
2022-10-15T04:54:07.575Z,10.91
2022-10-15T04:55:09.817Z,12.12
2022-10-15T04:56:15.195Z,11.08
2022-10-15T04:57:17.216Z,11.48
2022-10-15T04:58:19.104Z,11.23
2022-10-15T04:59:21.006Z,11.44
2022-10-15T05:00:22.999Z,11.67
2022-10-15T05:01:24.874Z,11.47
2022-10-15T05:02:26.855Z,11.43
2022-10-15T05:03:30.141Z,11.23
2022-10-15T05:04:32.104Z,11.47
2022-10-15T05:05:34.123Z,10.85
2022-10-15T05:06:36.090Z,10.73
2022-10-15T05:07:38.001Z,10.75
2022-10-15T05:08:40.003Z,11.27
2022-10-15T05:09:46.181Z,11.61
2022-10-15T05:10:45.985Z,11.06
2022-10-15T05:11:48.090Z,12.06
2022-10-15T05:12:51.567Z,11.01
2022-10-15T05:13:57.910Z,11.02
2022-10-15T05:14:59.941Z,11.79
2022-10-15T05:16:17.396Z,11.51
2022-10-15T05:17:19.476Z,11.67
2022-10-15T05:18:21.514Z,10.97
2022-10-15T05:19:23.395Z,11.01
2022-10-15T05:20:25.445Z,11.40
2022-10-15T05:21:28.705Z,11.71
2022-10-15T05:22:30.762Z,11.88
2022-10-15T05:23:32.955Z,12.11
2022-10-15T05:24:34.847Z,11.64
2022-10-15T05:25:36.960Z,11.47
2022-10-15T05:26:39.306Z,11.79
2022-10-15T05:27:41.187Z,10.90
2022-10-15T05:28:43.315Z,11.88
2022-10-15T05:29:45.679Z,10.42
2022-10-15T05:30:47.859Z,11.99
2022-10-15T05:31:51.203Z,11.47
2022-10-15T05:32:55.113Z,11.49
2022-10-15T05:34:03.482Z,11.96
2022-10-15T05:35:06.934Z,11.01
2022-10-15T05:36:21.826Z,11.46
2022-10-15T05:37:23.900Z,11.59
2022-10-15T05:38:26.186Z,11.57
2022-10-15T05:39:28.064Z,11.33
2022-10-15T05:40:30.289Z,10.69
2022-10-15T05:41:32.248Z,10.27
2022-10-15T05:42:34.291Z,11.42
2022-10-15T05:43:40.316Z,11.39
2022-10-15T05:44:40.368Z,10.79
2022-10-15T05:45:42.433Z,11.94
2022-10-15T05:46:44.530Z,11.74
2022-10-15T05:47:46.401Z,10.86
2022-10-15T05:48:50.970Z,11.33
2022-10-15T05:49:52.912Z,11.36
2022-10-15T05:51:01.057Z,11.52
2022-10-15T05:52:03.478Z,11.57
2022-10-15T05:53:05.647Z,11.57
2022-10-15T05:54:07.547Z,12.06
2022-10-15T05:55:09.413Z,12.70
2022-10-15T05:56:13.063Z,12.65
2022-10-15T05:57:14.956Z,15.39
2022-10-15T05:58:17.002Z,14.58
2022-10-15T05:59:19.009Z,15.25
2022-10-15T06:00:20.994Z,15.27
2022-10-15T06:01:23.067Z,15.05
2022-10-15T06:02:25.383Z,14.07
2022-10-15T06:03:28.531Z,12.93
2022-10-15T06:04:33.287Z,12.61
2022-10-15T06:05:34.452Z,13.05
2022-10-15T06:06:36.517Z,11.99
2022-10-15T06:07:38.598Z,12.89
2022-10-15T06:08:40.738Z,12.71
2022-10-15T06:09:42.651Z,12.32
2022-10-15T06:10:45.053Z,11.11
2022-10-15T06:11:46.977Z,11.85
2022-10-15T06:12:50.394Z,10.63
2022-10-15T06:13:52.958Z,11.08
2022-10-15T06:14:55.312Z,10.77
2022-10-15T06:15:57.921Z,10.09
2022-10-15T06:16:59.908Z,10.53
2022-10-15T06:18:01.828Z,10.70
2022-10-15T06:19:03.715Z,9.79
2022-10-15T06:20:06.728Z,10.01
2022-10-15T06:21:10.744Z,9.66
2022-10-15T06:22:12.658Z,10.34
2022-10-15T06:23:14.594Z,10.29
2022-10-15T06:24:16.477Z,10.36
2022-10-15T06:25:18.378Z,9.41
2022-10-15T06:26:20.389Z,10.09
2022-10-15T06:27:22.769Z,10.03
2022-10-15T06:28:25.310Z,9.70
2022-10-15T06:29:27.367Z,9.58
2022-10-15T06:30:29.360Z,9.73
2022-10-15T06:31:31.763Z,8.89
2022-10-15T06:32:33.765Z,9.08
2022-10-15T06:33:36.019Z,8.64
2022-10-15T06:34:37.935Z,8.56
2022-10-15T06:35:39.885Z,7.89
2022-10-15T06:36:41.996Z,8.76
2022-10-15T06:37:44.264Z,7.85
2022-10-15T06:38:47.097Z,8.90
2022-10-15T06:39:49.860Z,8.94
2022-10-15T06:40:52.150Z,8.49
2022-10-15T06:41:54.146Z,8.85
2022-10-15T06:43:05.601Z,7.91
2022-10-15T06:45:10.887Z,7.83
2022-10-15T06:46:13.268Z,8.05
2022-10-15T06:47:15.566Z,7.62
2022-10-15T06:48:18.152Z,8.39
2022-10-15T06:49:20.044Z,8.25
2022-10-15T06:50:22.034Z,7.48
2022-10-15T06:51:23.942Z,7.77
2022-10-15T06:52:28.287Z,7.16
2022-10-15T06:53:30.670Z,7.73
2022-10-15T06:54:32.592Z,7.41
2022-10-15T06:55:35.337Z,7.15
2022-10-15T06:56:37.364Z,6.95
2022-10-15T06:57:39.333Z,6.90
2022-10-15T06:58:42.322Z,6.87
2022-10-15T06:59:44.331Z,6.62
2022-10-15T07:00:46.413Z,6.52
2022-10-15T07:01:48.288Z,6.97
2022-10-15T07:02:50.926Z,6.69
2022-10-15T07:03:52.983Z,6.37
2022-10-15T07:04:54.919Z,6.35
2022-10-15T07:06:05.558Z,6.03
2022-10-15T07:07:07.520Z,5.92
2022-10-15T07:08:11.594Z,6.59
2022-10-15T07:09:14.152Z,6.65
2022-10-15T07:10:16.799Z,6.27
2022-10-15T07:11:19.275Z,6.33
2022-10-15T07:12:21.823Z,5.83
2022-10-15T07:13:24.301Z,5.14
2022-10-15T07:14:26.213Z,6.76
2022-10-15T07:15:28.841Z,6.00
2022-10-15T07:16:30.946Z,5.67
2022-10-15T07:17:32.839Z,5.19
2022-10-15T07:18:35.538Z,5.61
2022-10-15T07:19:37.503Z,5.82
2022-10-15T07:20:39.504Z,5.52
2022-10-15T07:21:41.705Z,4.99
2022-10-15T07:22:44.663Z,4.52
2022-10-15T07:23:46.586Z,4.83
2022-10-15T07:24:48.459Z,4.30
2022-10-15T07:25:50.351Z,5.43
2022-10-15T07:26:52.463Z,4.71
2022-10-15T07:27:55.619Z,3.72
2022-10-15T07:28:57.823Z,4.21
2022-10-15T07:30:00.140Z,4.15
2022-10-15T07:31:04.800Z,3.39
2022-10-15T07:32:06.765Z,4.09
2022-10-15T07:33:08.868Z,3.55
2022-10-15T07:34:10.745Z,3.65
2022-10-15T07:35:12.965Z,3.67
2022-10-15T07:36:15.449Z,3.57
2022-10-15T07:37:17.346Z,3.94
2022-10-15T07:38:19.281Z,2.90
2022-10-15T07:39:21.272Z,2.97
2022-10-15T07:40:23.292Z,2.54
2022-10-15T07:41:25.184Z,3.52
2022-10-15T07:42:27.556Z,2.96
2022-10-15T07:43:29.544Z,2.85
2022-10-15T07:44:31.844Z,3.01
2022-10-15T07:45:38.488Z,3.25
2022-10-15T07:46:41.726Z,3.22
2022-10-15T07:47:43.691Z,2.42
2022-10-15T07:48:45.562Z,3.03
2022-10-15T07:49:47.751Z,3.15
2022-10-15T07:50:57.620Z,2.70
2022-10-15T07:51:59.563Z,4.46
2022-10-15T07:53:01.458Z,3.43
2022-10-15T07:54:04.177Z,3.29
2022-10-15T07:55:07.508Z,2.59
2022-10-15T07:56:11.941Z,2.59
2022-10-15T07:57:13.913Z,4.40
2022-10-15T07:58:16.820Z,4.09
2022-10-15T07:59:18.702Z,2.36
2022-10-15T08:00:20.713Z,2.73
2022-10-15T08:01:22.853Z,5.55
2022-10-15T08:02:25.474Z,5.11
2022-10-15T08:03:28.362Z,3.16
2022-10-15T08:04:30.455Z,3.19
2022-10-15T08:05:32.963Z,2.73
2022-10-15T08:06:35.348Z,3.24
2022-10-15T08:07:37.226Z,3.17
2022-10-15T08:08:39.093Z,2.58
2022-10-15T08:09:41.018Z,2.27
2022-10-15T08:10:43.045Z,3.27
2022-10-15T08:11:45.061Z,4.11
2022-10-15T08:12:47.114Z,3.05
2022-10-15T08:13:49.094Z,2.57
2022-10-15T08:14:50.989Z,2.41
2022-10-15T08:15:56.293Z,2.62
2022-10-15T08:16:57.035Z,2.17
2022-10-15T08:17:59.248Z,2.08
2022-10-15T08:19:01.259Z,2.61
2022-10-15T08:20:04.516Z,1.95
2022-10-15T08:21:07.108Z,2.17
2022-10-15T08:22:09.014Z,2.53
2022-10-15T08:23:15.871Z,2.38
2022-10-15T08:24:17.947Z,2.81
2022-10-15T08:25:20.033Z,2.44
2022-10-15T08:26:22.288Z,2.76
2022-10-15T08:27:24.603Z,2.43
2022-10-15T08:28:27.827Z,2.63
2022-10-15T08:29:29.920Z,2.83
2022-10-15T08:30:31.907Z,2.70
2022-10-15T08:31:33.796Z,2.07
2022-10-15T08:32:35.656Z,2.40
2022-10-15T08:33:37.772Z,2.03
2022-10-15T08:34:39.701Z,2.05
2022-10-15T08:35:42.885Z,1.84
2022-10-15T08:36:44.975Z,2.02
2022-10-15T08:37:47.005Z,1.71
2022-10-15T08:38:48.975Z,1.83
2022-10-15T08:39:50.852Z,1.83
2022-10-15T08:40:58.778Z,1.75
2022-10-15T08:42:13.514Z,1.84
2022-10-15T08:43:31.417Z,1.63
2022-10-15T08:44:43.279Z,1.81
2022-10-15T08:45:46.893Z,2.25
2022-10-15T08:46:55.977Z,1.70
2022-10-15T08:48:07.747Z,1.98
2022-10-15T08:50:29.430Z,1.47
2022-10-15T08:51:35.245Z,1.28
2022-10-15T08:52:49.669Z,1.66
2022-10-15T08:53:58.528Z,1.36
2022-10-15T08:55:01.670Z,1.28
2022-10-15T08:56:07.712Z,1.82
2022-10-15T08:57:19.264Z,1.81
2022-10-15T08:58:30.870Z,1.14
2022-10-15T09:00:01.202Z,1.14
2022-10-15T09:01:06.882Z,1.38
2022-10-15T09:02:18.730Z,1.54
2022-10-15T09:03:53.840Z,1.47
2022-10-15T09:05:11.811Z,1.73
2022-10-15T09:06:35.603Z,1.43
2022-10-15T09:07:54.542Z,1.53
2022-10-15T09:09:15.982Z,1.83
2022-10-15T09:10:24.806Z,1.81
2022-10-15T09:11:48.634Z,2.13
2022-10-15T09:12:57.489Z,1.34
2022-10-15T09:14:00.019Z,1.68
2022-10-15T09:15:04.717Z,1.47
2022-10-15T09:16:22.877Z,1.77
2022-10-15T09:17:28.591Z,2.02
2022-10-15T09:18:33.530Z,1.66
2022-10-15T09:19:37.230Z,1.39
2022-10-15T09:20:39.636Z,0.96
2022-10-15T09:21:42.431Z,1.37
2022-10-15T09:22:47.224Z,1.25
2022-10-15T09:23:49.384Z,1.57
2022-10-15T09:24:52.171Z,1.81
2022-10-15T09:26:15.839Z,1.33
2022-10-15T09:27:35.636Z,1.16
2022-10-15T09:28:56.020Z,1.32
2022-10-15T09:30:02.002Z,1.39
2022-10-15T09:31:06.694Z,1.63
2022-10-15T09:32:27.608Z,1.24
2022-10-15T09:33:48.775Z,1.81
2022-10-15T09:35:00.745Z,1.39
2022-10-15T09:36:31.119Z,1.47
2022-10-15T09:38:05.852Z,1.33
2022-10-15T09:39:40.440Z,1.42
2022-10-15T09:40:55.777Z,1.38
2022-10-15T09:42:01.946Z,1.67
2022-10-15T09:43:06.063Z,0.97
2022-10-15T09:44:12.663Z,1.36
2022-10-15T09:45:16.460Z,1.34
2022-10-15T09:46:19.874Z,1.16
2022-10-15T09:47:25.307Z,1.44
2022-10-15T09:48:29.958Z,1.64
2022-10-15T09:49:36.345Z,1.59
2022-10-15T09:51:01.701Z,1.35
2022-10-15T09:52:26.228Z,1.39
2022-10-15T09:53:49.157Z,1.35
2022-10-15T09:54:58.084Z,1.14
2022-10-15T09:56:18.711Z,1.14
2022-10-15T09:57:22.982Z,1.11
2022-10-15T09:58:31.888Z,1.29
2022-10-15T09:59:33.846Z,1.40
2022-10-15T10:00:55.249Z,1.21
2022-10-15T10:02:16.361Z,1.26
2022-10-15T10:03:18.645Z,1.26
2022-10-15T10:04:20.709Z,1.20
2022-10-15T10:05:31.775Z,1.47
2022-10-15T10:06:46.587Z,1.66
2022-10-15T10:07:48.678Z,1.16
2022-10-15T10:08:59.120Z,1.13
2022-10-15T10:10:22.857Z,1.25
2022-10-15T10:11:26.547Z,1.75
2022-10-15T10:12:32.032Z,1.33
2022-10-15T10:13:37.779Z,1.34
2022-10-15T10:14:46.495Z,1.36
2022-10-15T10:15:56.074Z,1.38
2022-10-15T10:17:14.790Z,1.54
2022-10-15T10:18:22.571Z,2.91
2022-10-15T10:19:24.913Z,2.27
2022-10-15T10:20:29.914Z,2.57
2022-10-15T10:21:35.316Z,3.67
2022-10-15T10:22:51.984Z,1.52
2022-10-15T10:23:53.959Z,1.22
2022-10-15T10:24:56.035Z,1.30
2022-10-15T10:25:58.904Z,0.99
2022-10-15T10:27:02.133Z,1.09
2022-10-15T10:28:13.878Z,1.24
2022-10-15T10:29:33.714Z,1.16
2022-10-15T10:30:26.254Z,1.12
2022-10-15T10:31:31.620Z,1.45
2022-10-15T10:32:34.542Z,1.23
2022-10-15T10:33:43.122Z,1.44
2022-10-15T10:34:50.077Z,1.22
2022-10-15T10:35:51.264Z,1.14
2022-10-15T10:36:54.391Z,1.35
2022-10-15T10:37:56.881Z,1.26
2022-10-15T10:39:14.750Z,1.27
2022-10-15T10:41:55.139Z,1.23
2022-10-15T10:43:17.886Z,1.28
2022-10-15T10:44:22.996Z,1.25
2022-10-15T10:46:26.924Z,1.60
2022-10-15T10:47:32.602Z,1.05
2022-10-15T10:48:44.417Z,1.16
2022-10-15T10:49:53.073Z,1.42
2022-10-15T10:51:12.892Z,1.34
2022-10-15T10:52:24.736Z,1.23
2022-10-15T10:53:26.703Z,1.11
2022-10-15T10:54:29.966Z,1.46
2022-10-15T10:55:36.120Z,0.95
2022-10-15T10:56:41.240Z,1.34
2022-10-15T10:57:52.478Z,1.50
2022-10-15T10:59:03.840Z,1.04
2022-10-15T11:00:08.190Z,1.72
2022-10-15T11:01:12.892Z,1.54
2022-10-15T11:02:15.131Z,1.55
2022-10-15T11:03:32.797Z,1.45
2022-10-15T11:04:37.639Z,1.13
2022-10-15T11:05:40.946Z,1.11
2022-10-15T11:07:08.009Z,1.36
2022-10-15T11:08:47.637Z,1.22
2022-10-15T11:09:58.137Z,1.26
2022-10-15T11:11:23.869Z,1.06
2022-10-15T11:12:35.306Z,1.52
2022-10-15T11:14:13.317Z,1.59
2022-10-15T11:15:51.445Z,1.42
2022-10-15T11:17:00.046Z,1.41
2022-10-15T11:18:12.168Z,1.68
2022-10-15T11:19:50.432Z,1.72
2022-10-15T11:20:49.782Z,1.34
2022-10-15T11:21:57.646Z,1.26
2022-10-15T11:23:29.777Z,1.29
2022-10-15T11:25:06.038Z,1.68
2022-10-15T11:26:16.302Z,1.36
2022-10-15T11:27:25.358Z,1.38
2022-10-15T11:28:47.960Z,1.43
2022-10-15T11:30:15.154Z,1.51
2022-10-15T11:32:03.010Z,1.53
2022-10-15T11:33:22.753Z,1.07
2022-10-15T11:34:43.698Z,1.23
2022-10-15T11:36:07.093Z,1.39
2022-10-15T11:37:26.045Z,2.23
2022-10-15T11:38:31.770Z,1.84
2022-10-15T11:39:55.793Z,1.23
2022-10-15T11:41:10.634Z,1.22
2022-10-15T11:42:19.345Z,1.71
2022-10-15T11:43:27.796Z,1.54
2022-10-15T11:45:05.682Z,1.18
2022-10-15T11:46:26.880Z,1.87
2022-10-15T11:47:41.708Z,2.45
2022-10-15T11:49:05.558Z,3.99
2022-10-15T11:50:32.645Z,3.82
2022-10-15T11:51:49.925Z,2.01
2022-10-15T11:52:55.931Z,1.66
2022-10-15T11:55:40.552Z,1.43
2022-10-15T11:56:49.461Z,1.88
2022-10-15T11:57:55.394Z,1.32
2022-10-15T11:59:19.137Z,1.60
2022-10-15T12:00:31.251Z,1.47
2022-10-15T12:01:49.363Z,1.13
2022-10-15T12:02:54.169Z,1.14
2022-10-15T12:04:00.059Z,1.62
2022-10-15T12:05:11.639Z,1.72
2022-10-15T12:06:17.417Z,1.42
2022-10-15T12:07:25.718Z,1.30
2022-10-15T12:08:31.443Z,1.51
2022-10-15T12:09:39.314Z,1.61
2022-10-15T12:10:54.182Z,1.46
2022-10-15T12:12:28.504Z,1.89
2022-10-15T12:13:40.372Z,2.07
2022-10-15T12:15:09.236Z,3.95
2022-10-15T12:16:15.237Z,4.62
2022-10-15T12:17:37.665Z,3.76
2022-10-15T12:18:58.515Z,4.50
2022-10-15T12:20:09.973Z,6.92
2022-10-15T12:21:33.910Z,3.77
2022-10-15T12:22:39.331Z,8.81
2022-10-15T12:23:41.804Z,4.04
2022-10-15T12:24:50.353Z,3.50
2022-10-15T12:25:52.652Z,4.63
2022-10-15T12:26:55.775Z,4.13
2022-10-15T12:28:16.932Z,3.93
2022-10-15T12:29:26.075Z,2.36
2022-10-15T12:30:36.530Z,2.32
2022-10-15T12:31:51.300Z,2.13
2022-10-15T12:32:54.394Z,1.35
2022-10-15T12:33:57.195Z,1.71
2022-10-15T12:35:02.133Z,1.82
2022-10-15T12:36:26.112Z,1.88
2022-10-15T12:37:31.057Z,1.79
2022-10-15T12:38:35.803Z,2.17
2022-10-15T12:39:51.761Z,2.04
2022-10-15T12:40:46.629Z,1.57
2022-10-15T12:41:50.281Z,2.00
2022-10-15T12:43:04.364Z,1.75
2022-10-15T12:44:22.214Z,1.82
2022-10-15T12:45:27.796Z,3.86
2022-10-15T12:46:39.047Z,4.89
2022-10-15T12:48:07.887Z,7.93
2022-10-15T12:49:34.740Z,3.26
2022-10-15T12:50:36.904Z,1.49
2022-10-15T12:51:39.133Z,1.23
2022-10-15T12:52:59.744Z,1.58
2022-10-15T12:54:03.930Z,1.51
2022-10-15T12:55:24.440Z,1.39
2022-10-15T12:56:40.447Z,1.52
2022-10-15T12:57:49.258Z,1.48
2022-10-15T12:58:53.880Z,1.81
2022-10-15T13:00:01.098Z,1.45
2022-10-15T13:01:15.893Z,1.67
2022-10-15T13:03:53.194Z,1.52
2022-10-15T13:04:55.441Z,1.91
2022-10-15T13:06:18.246Z,2.07
2022-10-15T13:07:22.905Z,1.43
2022-10-15T13:08:25.967Z,1.47
2022-10-15T13:09:29.837Z,1.56
2022-10-15T13:10:38.955Z,1.58
2022-10-15T13:11:52.826Z,1.69
2022-10-15T13:12:58.579Z,1.74
2022-10-15T13:14:13.303Z,1.56
2022-10-15T13:15:26.490Z,2.06
2022-10-15T13:16:30.264Z,1.91
2022-10-15T13:17:32.929Z,1.62
2022-10-15T13:18:35.923Z,1.82
2022-10-15T13:19:41.800Z,1.59
2022-10-15T13:20:45.369Z,1.80
2022-10-15T13:21:55.301Z,1.90
2022-10-15T13:23:18.805Z,3.16
2022-10-15T13:24:16.976Z,2.11
2022-10-15T13:25:19.637Z,1.52
2022-10-15T13:26:27.994Z,1.90
2022-10-15T13:27:35.650Z,1.60
2022-10-15T13:28:40.077Z,1.89
2022-10-15T13:29:57.763Z,2.31
2022-10-15T13:31:04.586Z,1.70
2022-10-15T13:32:12.363Z,1.61
2022-10-15T13:33:15.151Z,1.98
2022-10-15T13:34:32.612Z,1.89
2022-10-15T13:35:38.199Z,2.10
2022-10-15T13:36:40.790Z,1.54
2022-10-15T13:37:45.440Z,2.23
2022-10-15T13:38:53.683Z,18.12
2022-10-15T13:39:55.831Z,34.82
2022-10-15T13:40:59.390Z,30.00
2022-10-15T13:42:16.693Z,16.56
2022-10-15T13:43:22.010Z,11.22
2022-10-15T13:44:24.463Z,10.44
2022-10-15T13:45:27.315Z,5.16
2022-10-15T13:47:52.144Z,2.66
2022-10-15T13:48:59.677Z,2.40
2022-10-15T13:50:14.282Z,2.01
2022-10-15T13:51:16.528Z,2.00
2022-10-15T13:52:18.789Z,1.93
2022-10-15T13:53:33.195Z,2.09
2022-10-15T13:54:35.470Z,2.62
2022-10-15T13:55:49.796Z,2.51
2022-10-15T13:56:54.749Z,3.30
2022-10-15T13:58:03.708Z,3.36
2022-10-15T13:59:05.931Z,3.24
2022-10-15T14:00:20.667Z,3.25
2022-10-15T14:01:24.681Z,3.63
2022-10-15T14:02:26.777Z,3.05
2022-10-15T14:03:31.441Z,2.64
2022-10-15T14:04:33.602Z,2.36
2022-10-15T14:05:35.981Z,3.17
2022-10-15T14:06:37.972Z,3.63
2022-10-15T14:07:39.972Z,3.44
2022-10-15T14:08:41.928Z,4.67
2022-10-15T14:09:46.190Z,4.14
2022-10-15T14:10:50.403Z,5.61
2022-10-15T14:11:53.733Z,5.31
2022-10-15T14:12:55.646Z,4.78
2022-10-15T14:13:58.743Z,3.97
2022-10-15T14:15:38.189Z,3.95
2022-10-15T14:16:43.996Z,3.78
2022-10-15T14:17:49.681Z,5.13
2022-10-15T14:18:58.377Z,4.79
2022-10-15T14:21:13.606Z,5.06
2022-10-15T14:22:18.878Z,5.39
2022-10-15T14:23:23.630Z,5.45
2022-10-15T14:24:34.997Z,6.74
2022-10-15T14:25:37.557Z,5.49
2022-10-15T14:26:40.358Z,4.23
2022-10-15T14:27:44.828Z,4.47
2022-10-15T14:28:49.814Z,3.99
2022-10-15T14:29:58.310Z,4.57
2022-10-15T14:31:01.374Z,5.37
2022-10-15T14:32:25.707Z,5.13
2022-10-15T14:33:40.283Z,5.33
2022-10-15T14:34:42.327Z,4.69
2022-10-15T14:35:44.343Z,5.17
2022-10-15T14:36:46.543Z,5.09
2022-10-15T14:38:01.039Z,5.99
2022-10-15T14:39:23.771Z,5.83
2022-10-15T14:40:26.165Z,5.72
2022-10-15T14:41:31.689Z,5.15
2022-10-15T14:42:36.206Z,5.44
2022-10-15T14:43:38.362Z,5.09
2022-10-15T14:44:46.642Z,5.22
2022-10-15T14:45:55.729Z,5.54
2022-10-15T14:47:02.698Z,5.88
2022-10-15T14:48:17.633Z,7.61
2022-10-15T14:49:23.385Z,8.47
2022-10-15T14:50:34.589Z,6.82
2022-10-15T14:51:36.656Z,7.53
2022-10-15T14:52:45.417Z,7.72
2022-10-15T14:53:47.860Z,10.61
2022-10-15T14:55:11.760Z,12.79